Time;durP1;ratioP1;P1;durP2;ratioP2;P2;SDS_P1;SDS_P2;PMS_P1;PMS_P2;Temp;Humidity;BMP_temperature;BMP_pressure;BME280_temperature;BME280_humidity;BME280_pressure;Samples;Min_cycle;Max_cycle;Signal;HPM_P1;HPM_P2
2024/02/14 00:01:16;;;;;;;;;;;231.00;2252.80;;;;;;4990359;28;19918;-74
2024/02/14 00:03:42;;;;;;;;;;;231.10;2252.80;;;;;;4992943;28;19913;-74
2024/02/14 00:06:08;;;;;;;;;;;231.20;2252.80;;;;;;5010780;28;19916;-74
2024/02/14 00:08:33;;;;;;;;;;;231.10;2252.80;;;;;;4992700;28;19991;-74
2024/02/14 00:11:00;;;;;;;;;;;231.00;2252.80;;;;;;4998751;28;20009;-74
2024/02/14 00:13:26;;;;;;;;;;;231.00;2252.80;;;;;;5010963;28;19916;-74
2024/02/14 00:15:52;;;;;;;;;;;230.90;2252.80;;;;;;5014611;28;19905;-74
2024/02/14 00:18:19;;;;;;;;;;;231.00;2252.80;;;;;;4994980;28;19933;-74
2024/02/14 00:20:44;;;;;;;;;;;231.00;2252.80;;;;;;4996286;28;19937;-74
2024/02/14 00:23:11;;;;;;;;;;;231.00;2252.80;;;;;;4978769;28;19913;-74
2024/02/14 00:25:37;;;;;;;;;;;231.10;2252.80;;;;;;4995763;28;19910;-74
2024/02/14 00:28:03;;;;;;;;;;;231.00;2252.80;;;;;;5015847;28;20298;-75
2024/02/14 00:30:29;;;;;;;;;;;231.00;2252.80;;;;;;5015612;28;19906;-74
2024/02/14 00:32:55;;;;;;;;;;;230.90;2252.80;;;;;;5014072;28;19932;-74
2024/02/14 00:35:21;;;;;;;;;;;230.90;2252.80;;;;;;4997834;28;19906;-74
2024/02/14 00:37:47;;;;;;;;;;;230.70;2252.80;;;;;;5014551;28;19955;-75
2024/02/14 00:40:13;;;;;;;;;;;230.90;2252.80;;;;;;5002442;28;19905;-74
2024/02/14 00:42:38;;;;;;;;;;;230.90;2252.80;;;;;;5015174;28;19944;-74
2024/02/14 00:45:05;;;;;;;;;;;230.80;2252.80;;;;;;5015051;28;19906;-74
2024/02/14 00:47:32;;;;;;;;;;;230.70;2252.80;;;;;;4997637;28;19912;-74
2024/02/14 00:49:58;;;;;;;;;;;230.50;2252.80;;;;;;5015200;28;19905;-75
2024/02/14 00:52:24;;;;;;;;;;;230.40;2252.80;;;;;;5015089;28;19905;-74
2024/02/14 00:54:49;;;;;;;;;;;205.70;2252.80;;;;;;5022559;28;20351;-74
2024/02/14 00:57:15;;;;;;;;;;;205.70;2252.80;;;;;;5020762;28;20363;-74
2024/02/14 00:59:41;;;;;;;;;;;205.70;2252.80;;;;;;4996988;28;19956;-74
2024/02/14 01:02:07;;;;;;;;;;;205.60;2252.80;;;;;;4997219;28;19918;-75
2024/02/14 01:04:32;;;;;;;;;;;205.50;2252.80;;;;;;5013747;28;20024;-79
2024/02/14 01:06:58;;;;;;;;;;;205.40;2252.80;;;;;;4997175;28;19965;-74
2024/02/14 01:09:24;;;;;;;;;;;205.40;2252.80;;;;;;4997243;28;19905;-74
2024/02/14 01:11:50;;;;;;;;;;;205.30;2252.80;;;;;;5014345;28;20374;-75
2024/02/14 01:14:16;;;;;;;;;;;205.30;2252.80;;;;;;4997008;28;19912;-79
2024/02/14 01:16:42;;;;;;;;;;;205.20;2252.80;;;;;;4997077;28;20287;-75
2024/02/14 01:19:08;;;;;;;;;;;205.20;2252.80;;;;;;5014782;28;19905;-75
2024/02/14 01:21:33;;;;;;;;;;;205.10;2252.80;;;;;;5014186;28;19913;-75
2024/02/14 01:23:59;;;;;;;;;;;205.10;2252.80;;;;;;4996973;28;19928;-75
2024/02/14 01:26:25;;;;;;;;;;;205.10;2252.80;;;;;;4997004;28;19911;-75
2024/02/14 01:28:50;;;;;;;;;;;205.00;2252.80;;;;;;5014358;28;19905;-74
2024/02/14 01:31:16;;;;;;;;;;;205.00;2252.80;;;;;;4996602;28;19905;-75
2024/02/14 01:33:41;;;;;;;;;;;205.00;2252.80;;;;;;5014003;28;19912;-75
2024/02/14 01:36:07;;;;;;;;;;;205.00;2252.80;;;;;;5014443;28;19906;-76
2024/02/14 01:38:35;;;;;;;;;;;205.00;2252.80;;;;;;5014001;28;19913;-74
2024/02/14 01:41:02;;;;;;;;;;;205.00;2252.80;;;;;;5014473;28;19917;-76
2024/02/14 01:43:28;;;;;;;;;;;205.00;2252.80;;;;;;5014388;28;19916;-76
2024/02/14 01:45:54;;;;;;;;;;;205.00;2252.80;;;;;;5013876;28;20385;-74
2024/02/14 01:48:20;;;;;;;;;;;205.10;2252.80;;;;;;4996368;28;19906;-76
2024/02/14 01:50:46;;;;;;;;;;;205.20;2252.80;;;;;;5014091;28;19960;-76
2024/02/14 01:53:12;;;;;;;;;;;205.10;2252.80;;;;;;4983738;28;19909;-75
2024/02/14 01:55:38;;;;;;;;;;;205.10;2252.80;;;;;;5014086;28;20479;-76
2024/02/14 01:58:04;;;;;;;;;;;205.10;2252.80;;;;;;4999962;28;19953;-76
2024/02/14 02:00:31;;;;;;;;;;;205.10;2252.80;;;;;;4996542;28;20000;-76
2024/02/14 02:02:57;;;;;;;;;;;205.20;2252.80;;;;;;4996566;28;20367;-76
2024/02/14 02:05:23;;;;;;;;;;;205.20;2252.80;;;;;;4996155;28;20330;-76
2024/02/14 02:07:49;;;;;;;;;;;205.30;2252.80;;;;;;5013906;28;19906;-75
2024/02/14 02:10:15;;;;;;;;;;;205.40;2252.80;;;;;;5013565;28;19913;-75
2024/02/14 02:12:41;;;;;;;;;;;205.30;2252.80;;;;;;4996081;28;20283;-76
2024/02/14 02:21:09;;;;;;;;;;;205.20;2252.80;;;;;;4952038;29;19945;-79
2024/02/14 02:23:35;;;;;;;;;;;205.30;2252.80;;;;;;4954946;29;20364;-78
2024/02/14 02:26:01;;;;;;;;;;;205.30;2252.80;;;;;;4953541;29;19907;-77
2024/02/14 02:28:27;;;;;;;;;;;205.20;2252.80;;;;;;4953713;28;19938;-80
2024/02/14 02:30:53;;;;;;;;;;;205.20;2252.80;;;;;;4953893;29;20487;-76
2024/02/14 02:33:19;;;;;;;;;;;205.10;2252.80;;;;;;4954494;29;19970;-80
2024/02/14 02:35:45;;;;;;;;;;;205.10;2252.80;;;;;;4954538;29;19940;-77
2024/02/14 02:38:11;;;;;;;;;;;205.10;2252.80;;;;;;4955039;29;19906;-79
2024/02/14 02:40:36;;;;;;;;;;;205.10;2252.80;;;;;;4954288;29;19913;-78
2024/02/14 02:43:03;;;;;;;;;;;205.20;2252.80;;;;;;4953120;29;19918;-77
2024/02/14 02:45:28;;;;;;;;;;;205.10;2252.80;;;;;;4953174;29;19907;-76
2024/02/14 02:47:55;;;;;;;;;;;205.10;2252.80;;;;;;4953220;29;19907;-77
2024/02/14 02:50:21;;;;;;;;;;;205.10;2252.80;;;;;;4953306;29;19914;-76
2024/02/14 02:52:47;;;;;;;;;;;205.10;2252.80;;;;;;4952872;29;19906;-79
2024/02/14 02:55:13;;;;;;;;;;;205.00;2252.80;;;;;;4952766;28;19906;-78
2024/02/14 02:57:40;;;;;;;;;;;205.00;2252.80;;;;;;4952800;29;19962;-78
2024/02/14 03:00:07;;;;;;;;;;;205.10;2252.80;;;;;;4954424;28;20379;-76
2024/02/14 03:02:34;;;;;;;;;;;205.00;2252.80;;;;;;4955248;29;19918;-77
2024/02/14 03:05:00;;;;;;;;;;;205.10;2252.80;;;;;;4957276;29;19912;-76
2024/02/14 03:07:27;;;;;;;;;;;205.00;2252.80;;;;;;4956578;29;19926;-79
2024/02/14 03:09:53;;;;;;;;;;;205.10;2252.80;;;;;;4957100;29;20432;-77
2024/02/14 03:12:20;;;;;;;;;;;205.10;2252.80;;;;;;4957625;29;19953;-78
2024/02/14 03:14:46;;;;;;;;;;;205.10;2252.80;;;;;;4956154;29;19911;-77
2024/02/14 03:17:12;;;;;;;;;;;205.10;2252.80;;;;;;4957898;28;19949;-79
2024/02/14 03:19:40;;;;;;;;;;;205.10;2252.80;;;;;;4956071;29;19950;-79
2024/02/14 03:22:08;;;;;;;;;;;205.10;2252.80;;;;;;4957758;29;19926;-77
2024/02/14 03:24:36;;;;;;;;;;;205.10;2252.80;;;;;;4956563;29;19954;-78
2024/02/14 03:27:04;;;;;;;;;;;205.20;2252.80;;;;;;4957861;29;20321;-76
2024/02/14 03:29:29;;;;;;;;;;;205.20;2252.80;;;;;;4956380;29;19910;-78
2024/02/14 03:31:58;;;;;;;;;;;205.20;2252.80;;;;;;4954427;28;19906;-75
2024/02/14 03:34:25;;;;;;;;;;;205.20;2252.80;;;;;;4956381;29;20001;-78
2024/02/14 03:36:50;;;;;;;;;;;205.20;2252.80;;;;;;4957091;28;20320;-77
2024/02/14 03:39:17;;;;;;;;;;;205.20;2252.80;;;;;;4957086;28;20004;-76
2024/02/14 03:41:42;;;;;;;;;;;205.20;2252.80;;;;;;4958073;28;19914;-77
2024/02/14 03:44:09;;;;;;;;;;;205.20;2252.80;;;;;;4956884;29;19922;-76
2024/02/14 03:46:37;;;;;;;;;;;205.10;2252.80;;;;;;4956614;28;19907;-78
2024/02/14 03:49:03;;;;;;;;;;;205.20;2252.80;;;;;;4957715;29;19914;-76
2024/02/14 03:51:29;;;;;;;;;;;205.20;2252.80;;;;;;4956441;28;20428;-76
2024/02/14 03:53:55;;;;;;;;;;;205.20;2252.80;;;;;;4956581;28;19907;-76
2024/02/14 03:56:20;;;;;;;;;;;205.20;2252.80;;;;;;4954793;29;19924;-78
2024/02/14 03:58:46;;;;;;;;;;;205.20;2252.80;;;;;;4956760;29;20001;-76
2024/02/14 04:01:13;;;;;;;;;;;205.10;2252.80;;;;;;4955914;28;19914;-75
2024/02/14 04:03:38;;;;;;;;;;;205.10;2252.80;;;;;;4940518;29;19932;-75
2024/02/14 04:06:04;;;;;;;;;;;205.20;2252.80;;;;;;4956049;28;20372;-75
2024/02/14 04:08:29;;;;;;;;;;;205.20;2252.80;;;;;;4948355;29;19911;-78
2024/02/14 04:10:56;;;;;;;;;;;205.20;2252.80;;;;;;4956255;29;19919;-76
2024/02/14 04:13:21;;;;;;;;;;;205.20;2252.80;;;;;;4954758;28;20280;-77
2024/02/14 04:15:47;;;;;;;;;;;205.20;2252.80;;;;;;4955844;28;19910;-81
2024/02/14 04:18:14;;;;;;;;;;;205.00;2252.80;;;;;;4957287;28;19921;-80
2024/02/14 04:20:40;;;;;;;;;;;205.00;2252.80;;;;;;4955877;28;19930;-75
2024/02/14 04:23:07;;;;;;;;;;;204.90;2252.80;;;;;;4941739;29;19918;-78
2024/02/14 04:25:33;;;;;;;;;;;204.90;2252.80;;;;;;4957638;28;21007;-76
2024/02/14 04:27:59;;;;;;;;;;;204.80;2252.80;;;;;;4956676;28;20057;-80
2024/02/14 04:30:25;;;;;;;;;;;204.90;2252.80;;;;;;4946434;29;19989;-80
2024/02/14 04:32:51;;;;;;;;;;;180.10;2252.80;;;;;;4956047;28;20268;-80
2024/02/14 04:35:19;;;;;;;;;;;204.80;2252.80;;;;;;4955321;28;19910;-77
2024/02/14 04:37:46;;;;;;;;;;;204.80;2252.80;;;;;;4955083;28;19953;-77
2024/02/14 04:40:12;;;;;;;;;;;180.10;2252.80;;;;;;4956293;28;19914;-77
2024/02/14 04:42:38;;;;;;;;;;;180.10;2252.80;;;;;;4953217;28;19919;-78
2024/02/14 04:45:04;;;;;;;;;;;204.80;2252.80;;;;;;4957136;28;20278;-77
2024/02/14 04:47:30;;;;;;;;;;;180.10;2252.80;;;;;;4956845;28;20284;-78
2024/02/14 04:49:55;;;;;;;;;;;204.80;2252.80;;;;;;4940179;29;19914;-79
2024/02/14 04:52:21;;;;;;;;;;;204.80;2252.80;;;;;;4956527;28;20403;-80
2024/02/14 04:54:46;;;;;;;;;;;180.10;2252.80;;;;;;4955547;28;19930;-78
2024/02/14 04:57:12;;;;;;;;;;;180.10;2252.80;;;;;;4957790;29;19961;-80
2024/02/14 04:59:38;;;;;;;;;;;204.80;2252.80;;;;;;4956958;29;20009;-80
2024/02/14 05:02:03;;;;;;;;;;;180.10;2252.80;;;;;;4955438;29;20291;-79
2024/02/14 05:04:29;;;;;;;;;;;204.80;2252.80;;;;;;4954828;29;19993;-80
2024/02/14 05:06:55;;;;;;;;;;;180.10;2252.80;;;;;;4956068;29;20276;-79
2024/02/14 05:09:20;;;;;;;;;;;180.10;2252.80;;;;;;4955114;29;20344;-78
2024/02/14 05:11:46;;;;;;;;;;;180.00;2252.80;;;;;;4955451;29;19906;-80
2024/02/14 05:14:12;;;;;;;;;;;180.00;2252.80;;;;;;4955723;29;19962;-78
2024/02/14 05:16:37;;;;;;;;;;;180.00;2252.80;;;;;;4955735;29;19906;-80
2024/02/14 05:19:03;;;;;;;;;;;180.00;2252.80;;;;;;4955755;29;20395;-79
2024/02/14 05:21:28;;;;;;;;;;;180.10;2252.80;;;;;;4956451;29;19915;-81
2024/02/14 05:23:54;;;;;;;;;;;180.10;2252.80;;;;;;4955324;28;19917;-79
2024/02/14 05:26:19;;;;;;;;;;;180.10;2252.80;;;;;;4956870;29;19910;-83
2024/02/14 05:28:46;;;;;;;;;;;179.90;2252.80;;;;;;4956936;29;20024;-82
2024/02/14 05:31:11;;;;;;;;;;;180.10;2252.80;;;;;;4955665;29;19914;-79
2024/02/14 05:33:37;;;;;;;;;;;180.00;2252.80;;;;;;4955313;29;19907;-80
2024/02/14 05:36:03;;;;;;;;;;;180.10;2252.80;;;;;;4956142;29;19976;-78
2024/02/14 05:38:29;;;;;;;;;;;180.10;2252.80;;;;;;4955168;29;20360;-82
2024/02/14 05:40:55;;;;;;;;;;;204.80;2252.80;;;;;;4956142;29;19938;-76
2024/02/14 05:43:22;;;;;;;;;;;180.10;2252.80;;;;;;4956475;29;19989;-80
2024/02/14 05:45:47;;;;;;;;;;;180.00;2252.80;;;;;;4952193;29;19907;-80
2024/02/14 05:48:14;;;;;;;;;;;180.00;2252.80;;;;;;4952692;28;19922;-81
2024/02/14 05:50:40;;;;;;;;;;;180.10;2252.80;;;;;;4947497;29;20503;-79
2024/02/14 05:53:05;;;;;;;;;;;204.80;2252.80;;;;;;4955081;29;19954;-80
2024/02/14 05:55:32;;;;;;;;;;;180.10;2252.80;;;;;;4956275;29;19938;-81
2024/02/14 05:57:59;;;;;;;;;;;180.10;2252.80;;;;;;4954757;29;19921;-80
2024/02/14 06:00:25;;;;;;;;;;;180.10;2252.80;;;;;;4956163;29;19918;-82
2024/02/14 06:02:50;;;;;;;;;;;180.10;2252.80;;;;;;4954731;29;19914;-80
2024/02/14 06:05:17;;;;;;;;;;;180.00;2252.80;;;;;;4955798;29;20275;-81
2024/02/14 06:07:44;;;;;;;;;;;180.10;2252.80;;;;;;4955158;29;19934;-80
2024/02/14 06:10:10;;;;;;;;;;;180.10;2252.80;;;;;;4956245;29;20275;-81
2024/02/14 06:12:36;;;;;;;;;;;180.10;2252.80;;;;;;4954387;29;19906;-81
2024/02/14 06:15:02;;;;;;;;;;;204.80;2252.80;;;;;;4954924;29;19961;-80
2024/02/14 06:17:27;;;;;;;;;;;204.90;2252.80;;;;;;4956207;29;19913;-78
2024/02/14 06:19:53;;;;;;;;;;;205.00;2252.80;;;;;;4955418;29;20300;-80
2024/02/14 06:22:20;;;;;;;;;;;205.00;2252.80;;;;;;4956024;29;19918;-81
2024/02/14 06:24:48;;;;;;;;;;;205.10;2252.80;;;;;;4955031;29;19907;-79
2024/02/14 06:27:14;;;;;;;;;;;205.30;2252.80;;;;;;4954895;29;19941;-82
2024/02/14 06:29:43;;;;;;;;;;;205.40;2252.80;;;;;;4955199;29;20017;-78
2024/02/14 06:32:08;;;;;;;;;;;205.50;2252.80;;;;;;4954552;29;19907;-80
2024/02/14 06:34:34;;;;;;;;;;;205.50;2252.80;;;;;;4955045;29;20288;-75
2024/02/14 06:37:00;;;;;;;;;;;205.30;2252.80;;;;;;4956979;28;19914;-78
2024/02/14 06:39:25;;;;;;;;;;;205.10;2252.80;;;;;;4957892;29;19907;-77
2024/02/14 06:41:51;;;;;;;;;;;205.30;2252.80;;;;;;4958724;28;20001;-85
2024/02/14 06:44:18;;;;;;;;;;;205.40;2252.80;;;;;;4958773;29;20305;-78
2024/02/14 06:46:43;;;;;;;;;;;205.50;2252.80;;;;;;4960058;29;19910;-78
2024/02/14 06:49:09;;;;;;;;;;;205.70;2252.80;;;;;;4959162;29;19953;-78
2024/02/14 06:51:35;;;;;;;;;;;205.70;2252.80;;;;;;4957893;29;19914;-80
2024/02/14 06:54:00;;;;;;;;;;;205.70;2252.80;;;;;;4957977;29;20001;-75
2024/02/14 06:56:26;;;;;;;;;;;205.70;2252.80;;;;;;4958011;29;20249;-75
2024/02/14 06:58:59;;;;;;;;;;;205.70;2252.80;;;;;;4958819;29;19913;-79
2024/02/14 07:01:28;;;;;;;;;;;230.40;2252.80;;;;;;4958155;29;19910;-83
2024/02/14 07:03:53;;;;;;;;;;;230.50;2252.80;;;;;;4958345;28;19915;-76
2024/02/14 07:06:19;;;;;;;;;;;230.40;2252.80;;;;;;4958914;29;19913;-80
2024/02/14 07:08:45;;;;;;;;;;;230.60;2252.80;;;;;;4958403;29;20398;-80
2024/02/14 07:11:11;;;;;;;;;;;230.60;2252.80;;;;;;4957519;28;19907;-76
2024/02/14 07:13:36;;;;;;;;;;;230.60;2252.80;;;;;;4958106;29;20000;-75
2024/02/14 07:16:02;;;;;;;;;;;230.50;2252.80;;;;;;4957179;29;20045;-80
2024/02/14 07:18:28;;;;;;;;;;;230.60;2252.80;;;;;;4957396;28;19911;-79
2024/02/14 07:20:53;;;;;;;;;;;230.70;2252.80;;;;;;4958894;29;19914;-81
2024/02/14 07:23:20;;;;;;;;;;;230.60;2252.80;;;;;;4957396;29;19922;-77
2024/02/14 07:25:45;;;;;;;;;;;230.60;2252.80;;;;;;4957495;29;19906;-79
2024/02/14 07:28:11;;;;;;;;;;;230.70;2252.80;;;;;;4959167;29;19962;-80
2024/02/14 07:30:37;;;;;;;;;;;230.70;2252.80;;;;;;4957195;29;19969;-80
2024/02/14 07:33:02;;;;;;;;;;;230.50;2252.80;;;;;;4958965;29;20008;-83
2024/02/14 07:35:29;;;;;;;;;;;230.40;2252.80;;;;;;4957144;29;19913;-77
2024/02/14 07:37:54;;;;;;;;;;;230.50;2252.80;;;;;;4957749;29;19913;-78
2024/02/14 07:40:20;;;;;;;;;;;230.50;2252.80;;;;;;4957245;29;19906;-75
2024/02/14 07:42:46;;;;;;;;;;;230.60;2252.80;;;;;;4958435;29;19970;-78
2024/02/14 07:45:12;;;;;;;;;;;230.80;2252.80;;;;;;4957490;28;19913;-78
2024/02/14 07:47:39;;;;;;;;;;;230.70;2252.80;;;;;;4958286;28;20399;-76
2024/02/14 07:50:04;;;;;;;;;;;230.90;2252.80;;;;;;4957091;29;19910;-78
2024/02/14 07:52:31;;;;;;;;;;;230.80;2252.80;;;;;;4957565;28;19962;-76
2024/02/14 07:54:57;;;;;;;;;;;230.90;2252.80;;;;;;4958133;29;19906;-76
2024/02/14 07:57:23;;;;;;;;;;;230.90;2252.80;;;;;;4958000;29;19914;-76
2024/02/14 07:59:48;;;;;;;;;;;231.00;2252.80;;;;;;4957825;29;19937;-80
2024/02/14 08:02:14;;;;;;;;;;;231.30;2252.80;;;;;;4958166;29;19961;-77
2024/02/14 08:04:39;;;;;;;;;;;231.20;2252.80;;;;;;4957027;29;19906;-81
2024/02/14 08:07:05;;;;;;;;;;;231.30;2252.80;;;;;;4957185;29;19906;-79
2024/02/14 08:09:31;;;;;;;;;;;256.00;2252.80;;;;;;4957934;29;19993;-82
2024/02/14 08:11:56;;;;;;;;;;;256.10;2252.80;;;;;;4956528;29;20360;-78
2024/02/14 08:14:22;;;;;;;;;;;256.30;2252.80;;;;;;4956515;29;19949;-77
2024/02/14 08:16:48;;;;;;;;;;;256.30;2252.80;;;;;;4956650;29;20427;-80
2024/02/14 08:19:14;;;;;;;;;;;256.20;2252.80;;;;;;4956505;29;19922;-82
2024/02/14 08:21:40;;;;;;;;;;;256.20;2252.80;;;;;;4956616;29;19914;-80
2024/02/14 08:24:06;;;;;;;;;;;256.10;2252.80;;;;;;4956682;29;19906;-77
2024/02/14 08:26:31;;;;;;;;;;;256.00;2252.80;;;;;;4956755;29;19913;-78
2024/02/14 08:28:58;;;;;;;;;;;231.20;2252.80;;;;;;4955792;29;19907;-78
2024/02/14 08:31:23;;;;;;;;;;;231.20;2252.80;;;;;;4956652;29;19945;-80
2024/02/14 08:33:49;;;;;;;;;;;231.20;2252.80;;;;;;4969365;28;19945;-85
2024/02/14 08:36:16;;;;;;;;;;;231.30;2252.80;;;;;;4956749;29;19913;-84
2024/02/14 08:38:42;;;;;;;;;;;256.00;2252.80;;;;;;4956191;29;19906;-83
2024/02/14 08:41:08;;;;;;;;;;;231.20;2252.80;;;;;;4957865;29;19906;-83
2024/02/14 08:43:33;;;;;;;;;;;231.30;2252.80;;;;;;4956568;28;19957;-82
2024/02/14 08:45:59;;;;;;;;;;;256.00;2252.80;;;;;;4956306;29;19957;-84
2024/02/14 08:48:27;;;;;;;;;;;256.00;2252.80;;;;;;4956358;28;19965;-80
2024/02/14 08:50:52;;;;;;;;;;;256.10;2252.80;;;;;;4956369;29;20320;-79
2024/02/14 08:53:18;;;;;;;;;;;256.20;2252.80;;;;;;4955993;29;19906;-79
2024/02/14 08:55:44;;;;;;;;;;;256.40;2252.80;;;;;;4955969;29;19910;-80
2024/02/14 08:58:10;;;;;;;;;;;256.60;2252.80;;;;;;4955374;28;19911;-78
2024/02/14 09:00:36;;;;;;;;;;;256.60;2252.80;;;;;;4955805;29;19906;-80
2024/02/14 09:03:02;;;;;;;;;;;256.80;2252.80;;;;;;4956068;29;19914;-80
2024/02/14 09:05:28;;;;;;;;;;;256.90;2252.80;;;;;;4955818;29;19913;-78
2024/02/14 09:07:54;;;;;;;;;;;256.70;2252.80;;;;;;4955492;29;19915;-80
2024/02/14 09:10:19;;;;;;;;;;;256.80;2252.80;;;;;;4956153;29;20006;-80
2024/02/14 09:12:45;;;;;;;;;;;256.70;2252.80;;;;;;4955606;29;19913;-79
2024/02/14 09:15:11;;;;;;;;;;;256.70;2252.80;;;;;;4940378;29;19906;-81
2024/02/14 09:17:38;;;;;;;;;;;256.50;2252.80;;;;;;4955742;29;19906;-81
2024/02/14 09:20:06;;;;;;;;;;;256.70;2252.80;;;;;;4957140;28;20037;-81
2024/02/14 09:22:33;;;;;;;;;;;256.80;2252.80;;;;;;4955625;29;19914;-83
2024/02/14 09:24:59;;;;;;;;;;;256.90;2252.80;;;;;;4957052;29;19980;-85
2024/02/14 09:27:25;;;;;;;;;;;256.90;2252.80;;;;;;4955778;29;20356;-85
2024/02/14 09:29:50;;;;;;;;;;;256.90;2252.80;;;;;;4954752;29;19914;-83
2024/02/14 09:32:16;;;;;;;;;;;281.70;2278.40;;;;;;4956823;29;19910;-79
2024/02/14 09:34:41;;;;;;;;;;;281.90;2278.40;;;;;;4955665;29;20333;-82
2024/02/14 09:37:07;;;;;;;;;;;282.00;2201.60;;;;;;4955379;29;19907;-84
2024/02/14 09:39:36;;;;;;;;;;;282.20;2278.40;;;;;;4956303;29;19906;-81
2024/02/14 09:42:07;;;;;;;;;;;282.50;2278.40;;;;;;4956647;29;19914;-82
2024/02/14 09:44:34;;;;;;;;;;;307.30;2201.60;;;;;;4955162;29;19929;-81
2024/02/14 09:47:01;;;;;;;;;;;307.60;2201.60;;;;;;4955550;29;19923;-82
2024/02/14 09:49:28;;;;;;;;;;;308.00;2150.40;;;;;;4955622;29;19911;-83
2024/02/14 09:51:55;;;;;;;;;;;332.80;2073.60;;;;;;4956607;29;19921;-83
2024/02/14 09:54:21;;;;;;;;;;;332.90;2022.40;;;;;;4955651;29;19951;-82
2024/02/14 09:56:53;;;;;;;;;;;333.10;1971.20;;;;;;4956806;29;19982;-85
2024/02/14 09:59:22;;;;;;;;;;;333.30;1894.40;;;;;;4954900;28;19910;-78
2024/02/14 10:01:49;;;;;;;;;;;333.40;1843.20;;;;;;4954996;29;19918;-82
2024/02/14 10:04:15;;;;;;;;;;;333.60;1843.20;;;;;;4955081;29;19907;-81
2024/02/14 10:06:40;;;;;;;;;;;358.60;1792.00;;;;;;4954812;29;19906;-83
2024/02/14 10:09:07;;;;;;;;;;;358.50;1740.80;;;;;;4954617;29;19913;-82
2024/02/14 10:11:33;;;;;;;;;;;;;;;;;;4955571;28;19914;-80
2024/02/14 10:14:02;;;;;;;;;;;359.00;1715.20;;;;;;4954971;28;19911;-83
2024/02/14 10:16:28;;;;;;;;;;;359.20;1715.20;;;;;;4954974;29;19906;-83
2024/02/14 10:18:54;;;;;;;;;;;384.00;1638.40;;;;;;4954141;28;20442;-82
2024/02/14 10:21:21;;;;;;;;;;;384.20;1638.40;;;;;;4953529;29;20332;-83
2024/02/14 10:23:49;;;;;;;;;;;384.20;1612.80;;;;;;4954036;28;19910;-83
2024/02/14 10:26:15;;;;;;;;;;;384.30;1587.20;;;;;;4953979;28;19906;-77
2024/02/14 10:28:44;;;;;;;;;;;384.60;1612.80;;;;;;4955194;29;19907;-78
2024/02/14 10:31:10;;;;;;;;;;;384.70;1638.40;;;;;;4955237;29;19911;-84
2024/02/14 10:33:36;;;;;;;;;;;409.60;1587.20;;;;;;4953980;28;19915;-80
2024/02/14 10:36:07;;;;;;;;;;;409.70;1587.20;;;;;;4953926;29;19914;-81
2024/02/14 10:38:33;;;;;;;;;;;409.60;1536.00;;;;;;4953513;29;19953;-80
2024/02/14 10:41:00;;;;;;;;;;;409.90;1536.00;;;;;;4953885;28;19907;-79
2024/02/14 10:43:26;;;;;;;;;;;409.60;1561.60;;;;;;4953242;29;19921;-79
2024/02/14 10:45:52;;;;;;;;;;;410.00;1536.00;;;;;;4953931;29;19910;-82
2024/02/14 10:48:18;;;;;;;;;;;410.20;1536.00;;;;;;4953518;29;19915;-80
2024/02/14 10:50:44;;;;;;;;;;;410.20;1484.80;;;;;;4953105;29;19914;-80
2024/02/14 10:53:16;;;;;;;;;;;410.30;1510.40;;;;;;4953229;29;19907;-80
2024/02/14 10:55:45;;;;;;;;;;;410.30;1459.20;;;;;;4953907;29;19906;-80
2024/02/14 10:58:11;;;;;;;;;;;409.90;1459.20;;;;;;4953698;28;19926;-80
2024/02/14 11:00:37;;;;;;;;;;;410.20;1459.20;;;;;;4953381;29;19906;-80
2024/02/14 11:03:03;;;;;;;;;;;410.50;1459.20;;;;;;4953723;29;19961;-82
2024/02/14 11:05:29;;;;;;;;;;;435.20;1433.60;;;;;;4953541;29;19912;-80
2024/02/14 11:07:56;;;;;;;;;;;410.20;1459.20;;;;;;4953356;29;20001;-78
2024/02/14 11:10:22;;;;;;;;;;;409.90;1484.80;;;;;;4953563;29;19958;-79
2024/02/14 11:12:50;;;;;;;;;;;384.70;1459.20;;;;;;4954424;29;19907;-79
2024/02/14 11:15:24;;;;;;;;;;;384.90;1459.20;;;;;;4953372;29;19915;-81
2024/02/14 11:17:51;;;;;;;;;;;409.90;1459.20;;;;;;4953037;29;19926;-79
2024/02/14 11:20:21;;;;;;;;;;;409.80;1484.80;;;;;;4909013;29;1293856;-78
2024/02/14 11:22:52;;;;;;;;;;;384.70;1459.20;;;;;;4955911;28;19919;-79
2024/02/14 11:25:18;;;;;;;;;;;384.60;1510.40;;;;;;4955281;29;19906;-78
2024/02/14 11:27:47;;;;;;;;;;;384.00;1536.00;;;;;;4957441;29;19910;-78
2024/02/14 11:30:14;;;;;;;;;;;359.00;1536.00;;;;;;4958317;29;19957;-78
2024/02/14 11:32:42;;;;;;;;;;;384.20;1536.00;;;;;;4957356;29;19913;-79
2024/02/14 11:35:11;;;;;;;;;;;384.90;1510.40;;;;;;4957262;29;19995;-80
2024/02/14 11:37:36;;;;;;;;;;;384.70;1510.40;;;;;;4958457;29;20499;-80
2024/02/14 11:40:02;;;;;;;;;;;384.30;1536.00;;;;;;4957596;29;19949;-81
2024/02/14 11:42:28;;;;;;;;;;;384.40;1536.00;;;;;;4957806;29;19914;-81
2024/02/14 11:44:56;;;;;;;;;;;384.90;1484.80;;;;;;4957743;29;19926;-82
2024/02/14 11:47:22;;;;;;;;;;;409.70;1484.80;;;;;;4958103;29;20264;-78
2024/02/14 11:49:48;;;;;;;;;;;410.10;1433.60;;;;;;4957009;29;19906;-80
2024/02/14 11:52:14;;;;;;;;;;;410.10;1433.60;;;;;;4957104;29;19969;-80
2024/02/14 11:54:39;;;;;;;;;;;410.40;1433.60;;;;;;4957305;29;19921;-80
2024/02/14 11:57:08;;;;;;;;;;;410.40;1433.60;;;;;;4957247;29;20001;-81
2024/02/14 11:59:34;;;;;;;;;;;410.20;1433.60;;;;;;4957044;29;19906;-80
2024/02/14 12:01:59;;;;;;;;;;;409.90;1459.20;;;;;;4957025;28;20009;-80
2024/02/14 12:04:25;;;;;;;;;;;410.20;1433.60;;;;;;4957976;29;19913;-79
2024/02/14 12:06:51;;;;;;;;;;;410.30;1433.60;;;;;;4956367;29;20451;-79
2024/02/14 12:09:16;;;;;;;;;;;409.70;1459.20;;;;;;4957065;29;19952;-81
2024/02/14 12:11:46;;;;;;;;;;;384.90;1484.80;;;;;;4957953;28;20000;-80
2024/02/14 12:14:11;;;;;;;;;;;409.60;1510.40;;;;;;4956720;29;19914;-77
2024/02/14 12:16:39;;;;;;;;;;;409.70;1459.20;;;;;;4956501;29;19953;-79
2024/02/14 12:19:09;;;;;;;;;;;384.90;1459.20;;;;;;4957437;28;19965;-78
2024/02/14 12:21:38;;;;;;;;;;;384.90;1459.20;;;;;;4956399;29;20060;-79
2024/02/14 12:24:07;;;;;;;;;;;384.50;1459.20;;;;;;4957100;29;19920;-79
2024/02/14 12:26:33;;;;;;;;;;;384.70;1484.80;;;;;;4956628;28;19906;-79
2024/02/14 12:29:01;;;;;;;;;;;384.50;1510.40;;;;;;4956150;29;19961;-77
2024/02/14 12:31:26;;;;;;;;;;;384.00;1510.40;;;;;;4956382;28;19946;-76
2024/02/14 12:33:55;;;;;;;;;;;359.20;1510.40;;;;;;4954499;28;19907;-79
2024/02/14 12:36:21;;;;;;;;;;;384.00;1484.80;;;;;;4956512;28;19907;-76
2024/02/14 12:38:46;;;;;;;;;;;384.20;1484.80;;;;;;4957025;28;19941;-75
2024/02/14 12:41:12;;;;;;;;;;;359.10;1536.00;;;;;;4955706;29;19958;-78
2024/02/14 12:43:37;;;;;;;;;;;358.90;1510.40;;;;;;4955800;29;19918;-78
2024/02/14 12:46:04;;;;;;;;;;;359.00;1536.00;;;;;;4957541;29;20039;-78
2024/02/14 12:48:30;;;;;;;;;;;359.20;1510.40;;;;;;4955744;29;20291;-75
2024/02/14 12:50:56;;;;;;;;;;;359.20;1561.60;;;;;;4955809;29;19965;-78
2024/02/14 12:53:22;;;;;;;;;;;384.00;1536.00;;;;;;4956997;29;19907;-76
2024/02/14 12:55:48;;;;;;;;;;;384.30;1561.60;;;;;;4957138;29;19910;-85
2024/02/14 12:58:14;;;;;;;;;;;384.30;1510.40;;;;;;4957140;29;19969;-77
2024/02/14 13:00:40;;;;;;;;;;;384.40;1484.80;;;;;;4957183;29;20001;-77
2024/02/14 13:03:05;;;;;;;;;;;384.30;1484.80;;;;;;4955659;29;20380;-74
2024/02/14 13:05:31;;;;;;;;;;;384.00;1510.40;;;;;;4956737;29;19906;-78
2024/02/14 13:07:56;;;;;;;;;;;359.30;1536.00;;;;;;4956714;29;20392;-77
2024/02/14 13:10:23;;;;;;;;;;;359.20;1536.00;;;;;;4956834;29;19906;-78
2024/02/14 13:12:49;;;;;;;;;;;359.10;1510.40;;;;;;4955449;28;19910;-80
2024/02/14 13:15:16;;;;;;;;;;;358.60;1536.00;;;;;;4956961;29;19906;-79
2024/02/14 13:17:42;;;;;;;;;;;358.50;1561.60;;;;;;4955601;28;19906;-78
2024/02/14 13:20:08;;;;;;;;;;;358.50;1536.00;;;;;;4955567;28;19922;-80
2024/02/14 13:22:33;;;;;;;;;;;358.60;1561.60;;;;;;4954997;29;19985;-78
2024/02/14 13:25:02;;;;;;;;;;;358.50;1587.20;;;;;;4955625;28;20373;-78
2024/02/14 13:27:28;;;;;;;;;;;358.70;1587.20;;;;;;4954688;29;19913;-78
2024/02/14 13:29:54;;;;;;;;;;;358.80;1587.20;;;;;;4954529;29;19910;-78
2024/02/14 13:32:19;;;;;;;;;;;358.80;1561.60;;;;;;4955509;28;19953;-77
2024/02/14 13:34:45;;;;;;;;;;;358.80;1561.60;;;;;;4955280;29;19929;-76
2024/02/14 13:37:10;;;;;;;;;;;358.60;1587.20;;;;;;4954519;29;20311;-78
2024/02/14 13:39:36;;;;;;;;;;;358.60;1561.60;;;;;;4955090;29;20284;-78
2024/02/14 13:42:02;;;;;;;;;;;358.50;1561.60;;;;;;4954927;29;19953;-77